Time;durP1;ratioP1;P1;durP2;ratioP2;P2;SDS_P1;SDS_P2;PMS_P1;PMS_P2;Temp;Humidity;BMP_temperature;BMP_pressure;BME280_temperature;BME280_humidity;BME280_pressure;Samples;Min_cycle;Max_cycle;Signal;HPM_P1;HPM_P2
2023/03/04 00:01:29;;;;;;;10.60;3.80;;;6.00;21.10;;;;;;5053204;22;20527;-84
2023/03/04 00:03:56;;;;;;;6.80;3.40;;;5.90;4.10;;;;;;5023017;28;20483;-84
2023/03/04 00:06:24;;;;;;;10.53;3.50;;;5.90;10.70;;;;;;5036653;28;20545;-84
2023/03/04 00:08:51;;;;;;;9.90;2.77;;;6.00;17.70;;;;;;5032071;28;20551;-82
2023/03/04 00:11:18;;;;;;;7.13;2.40;;;6.00;21.30;;;;;;5017899;28;20512;-83
2023/03/04 00:13:44;;;;;;;10.97;3.63;;;6.00;29.20;;;;;;5017898;28;20433;-83
2023/03/04 00:16:11;;;;;;;9.60;5.40;;;6.00;44.30;;;;;;5002825;28;20461;-83
2023/03/04 00:18:38;;;;;;;10.03;3.87;;;6.00;38.80;;;;;;4998537;28;20460;-83
2023/03/04 00:21:05;;;;;;;12.20;3.00;;;6.00;37.80;;;;;;4996405;28;20488;-82
2023/03/04 00:23:33;;;;;;;10.37;3.00;;;6.00;26.90;;;;;;4995110;28;20879;-82
2023/03/04 00:26:00;;;;;;;7.90;3.53;;;6.00;36.20;;;;;;5013262;28;20477;-82
2023/03/04 00:28:27;;;;;;;10.13;3.33;;;6.00;49.10;;;;;;5014939;28;20513;-82
2023/03/04 00:30:54;;;;;;;11.93;3.33;;;6.00;60.50;;;;;;5007280;28;20482;-83
2023/03/04 00:33:21;;;;;;;8.00;3.20;;;6.00;89.50;;;;;;5003234;28;20504;-82
2023/03/04 00:35:48;;;;;;;12.87;3.33;;;6.00;92.80;;;;;;4995367;28;20455;-82
2023/03/04 00:38:15;;;;;;;18.23;4.13;;;5.90;71.40;;;;;;5007391;28;20832;-83
2023/03/04 00:40:43;;;;;;;8.27;3.20;;;5.80;44.10;;;;;;5017320;28;20554;-83
2023/03/04 00:43:09;;;;;;;10.77;4.13;;;5.80;23.50;;;;;;5004812;28;20936;-83
2023/03/04 00:45:36;;;;;;;9.93;3.40;;;5.90;15.20;;;;;;4995834;28;20455;-81
2023/03/04 00:48:03;;;;;;;11.47;3.17;;;5.90;20.40;;;;;;5004507;28;20488;-83
2023/03/04 00:50:30;;;;;;;8.80;3.70;;;5.90;19.30;;;;;;5014858;28;21186;-82
2023/03/04 00:52:57;;;;;;;7.90;3.10;;;5.90;17.80;;;;;;5008702;28;20512;-82
2023/03/04 00:55:25;;;;;;;6.73;3.00;;;5.90;22.30;;;;;;4996134;28;20436;-82
2023/03/04 00:57:53;;;;;;;10.80;3.20;;;5.90;27.00;;;;;;5001786;28;20457;-84
2023/03/04 01:00:20;;;;;;;11.17;3.13;;;5.90;36.80;;;;;;5014984;28;20478;-84
2023/03/04 01:02:47;;;;;;;9.50;3.67;;;5.90;30.00;;;;;;5003481;28;20741;-82
2023/03/04 01:05:14;;;;;;;8.50;3.43;;;6.00;33.40;;;;;;4995658;28;20975;-83
2023/03/04 01:07:42;;;;;;;9.30;3.13;;;5.90;57.50;;;;;;5005296;28;20437;-83
2023/03/04 01:10:11;;;;;;;8.27;3.37;;;5.90;57.20;;;;;;5003654;28;20495;-81
2023/03/04 01:12:39;;;;;;;10.70;2.73;;;5.90;57.80;;;;;;5008716;28;20463;-82
2023/03/04 01:15:08;;;;;;;9.13;2.90;;;6.00;58.00;;;;;;5014375;28;20459;-83
2023/03/04 01:17:35;;;;;;;13.10;3.60;;;6.00;56.90;;;;;;5003651;28;20461;-83
2023/03/04 01:20:02;;;;;;;7.37;3.10;;;5.90;22.50;;;;;;4997286;28;20478;-84
2023/03/04 01:22:29;;;;;;;8.20;3.80;;;6.00;30.30;;;;;;5008297;28;20430;-83
2023/03/04 01:24:56;;;;;;;22.20;4.17;;;6.00;41.60;;;;;;5018248;28;20550;-83
2023/03/04 01:27:23;;;;;;;10.33;2.57;;;6.00;45.10;;;;;;5001857;28;20488;-83
2023/03/04 01:29:50;;;;;;;13.43;3.90;;;6.00;45.90;;;;;;5000962;28;20484;-83
2023/03/04 01:32:18;;;;;;;8.17;3.53;;;6.00;40.10;;;;;;5010099;28;20463;-83
2023/03/04 01:34:45;;;;;;;6.57;3.67;;;6.00;49.20;;;;;;5021657;28;20450;-80
2023/03/04 01:37:13;;;;;;;9.73;3.20;;;6.00;70.60;;;;;;5006376;28;20548;-83
2023/03/04 01:39:40;;;;;;;16.37;3.70;;;6.00;60.60;;;;;;4998902;28;20472;-84
2023/03/04 01:42:13;;;;;;;7.00;2.70;;;6.00;47.30;;;;;;5016003;28;20539;-83
2023/03/04 01:44:40;;;;;;;13.13;3.43;;;5.90;41.10;;;;;;5018394;28;20514;-83
2023/03/04 01:47:08;;;;;;;7.60;3.83;;;6.00;42.10;;;;;;5000865;28;20460;-83
2023/03/04 01:49:36;;;;;;;6.47;3.10;;;5.90;46.40;;;;;;5004471;28;20475;-84
2023/03/04 01:52:04;;;;;;;12.93;3.63;;;5.90;50.70;;;;;;5017569;28;20976;-84
2023/03/04 01:54:30;;;;;;;7.37;3.27;;;6.00;51.70;;;;;;5012571;28;20523;-83
2023/03/04 01:56:59;;;;;;;13.43;3.70;;;6.00;42.00;;;;;;4997894;28;20457;-82
2023/03/04 01:59:30;;;;;;;19.57;4.40;;;5.90;52.00;;;;;;4996633;28;20488;-83
2023/03/04 02:01:59;;;;;;;10.83;3.53;;;5.90;41.90;;;;;;4997584;28;20444;-82
2023/03/04 02:04:30;;;;;;;8.00;3.07;;;5.90;64.30;;;;;;5002275;28;20547;-83
2023/03/04 02:07:00;;;;;;;12.40;4.00;;;6.00;57.60;;;;;;5017733;28;20532;-83
2023/03/04 02:09:28;;;;;;;11.00;3.70;;;5.90;67.10;;;;;;5007288;28;20476;-83
2023/03/04 02:11:56;;;;;;;11.90;4.00;;;5.90;99.30;;;;;;4997469;28;20449;-83
2023/03/04 02:14:23;;;;;;;14.47;4.10;;;5.80;99.90;;;;;;5005142;28;20461;-82
2023/03/04 02:16:50;;;;;;;12.40;3.43;;;5.90;99.90;;;;;;5006401;28;20450;-83
2023/03/04 02:19:28;;;;;;;9.93;3.63;;;5.80;99.90;;;;;;5002764;28;20453;-83
2023/03/04 02:21:55;;;;;;;11.80;3.30;;;5.80;94.60;;;;;;4999505;28;20822;-83
2023/03/04 02:24:29;;;;;;;10.80;2.80;;;5.90;99.90;;;;;;4998710;28;21028;-83
2023/03/04 02:26:57;;;;;;;9.80;2.70;;;5.90;94.00;;;;;;4998810;28;20468;-83
2023/03/04 02:29:24;;;;;;;5.20;3.33;;;5.90;91.70;;;;;;5010757;28;20421;-82
2023/03/04 02:31:53;;;;;;;10.67;3.33;;;5.90;69.50;;;;;;5018930;28;20555;-83
2023/03/04 02:34:22;;;;;;;16.30;3.30;;;5.90;72.00;;;;;;5004937;28;20455;-83
2023/03/04 02:36:51;;;;;;;17.10;5.00;;;5.90;83.00;;;;;;5010824;28;20522;-83
2023/03/04 02:39:25;;;;;;;17.60;4.90;;;5.90;82.10;;;;;;5018134;28;20457;-83
2023/03/04 02:41:53;;;;;;;15.57;4.70;;;5.80;73.70;;;;;;5006410;28;20905;-83
2023/03/04 02:44:24;;;;;;;14.00;5.00;;;5.80;91.30;;;;;;4998142;28;20497;-83
2023/03/04 02:46:51;;;;;;;11.23;4.33;;;5.80;65.80;;;;;;5010270;28;20546;-83
2023/03/04 02:49:18;;;;;;;16.47;5.33;;;5.90;66.20;;;;;;5018250;28;20452;-83
2023/03/04 02:51:46;;;;;;;13.83;4.10;;;5.90;93.70;;;;;;5002214;28;20431;-83
2023/03/04 02:54:17;;;;;;;12.33;4.10;;;5.90;66.60;;;;;;4998287;28;20486;-83
2023/03/04 02:56:47;;;;;;;10.13;3.80;;;6.00;56.20;;;;;;5013072;28;20463;-84
2023/03/04 02:59:14;;;;;;;15.47;3.13;;;6.00;48.20;;;;;;5018728;28;20838;-83
2023/03/04 03:01:42;;;;;;;13.70;3.30;;;5.90;58.70;;;;;;5004415;28;20968;-85
2023/03/04 03:04:09;;;;;;;8.53;3.40;;;5.90;79.80;;;;;;4998039;28;20485;-83
2023/03/04 03:06:36;;;;;;;12.23;3.80;;;5.90;66.40;;;;;;5010228;28;20460;-83
2023/03/04 03:09:03;;;;;;;13.60;3.30;;;5.90;82.20;;;;;;5006062;28;20427;-84
2023/03/04 03:11:30;;;;;;;8.60;2.50;;;5.90;70.10;;;;;;4998112;28;20457;-83
2023/03/04 03:13:57;;;;;;;11.67;3.00;;;6.00;60.10;;;;;;5007741;28;20453;-81
2023/03/04 03:16:24;;;;;;;10.93;3.57;;;6.00;64.80;;;;;;5017163;28;20463;-83
2023/03/04 03:18:52;;;;;;;8.30;3.30;;;5.90;59.60;;;;;;5008502;28;20471;-83
2023/03/04 03:21:19;;;;;;;9.97;2.97;;;6.00;61.00;;;;;;5021945;28;20476;-84
2023/03/04 03:23:46;;;;;;;8.43;3.07;;;6.00;71.60;;;;;;5016112;28;20858;-84
2023/03/04 03:26:13;;;;;;;7.97;3.30;;;6.10;67.50;;;;;;5003129;28;20516;-84
2023/03/04 03:28:40;;;;;;;7.77;3.33;;;6.10;54.30;;;;;;5008105;28;20464;-84
2023/03/04 03:31:06;;;;;;;10.30;3.40;;;6.00;61.60;;;;;;5021903;28;20510;-83
2023/03/04 03:33:33;;;;;;;8.70;2.67;;;6.00;33.60;;;;;;5020759;28;20463;-83
2023/03/04 03:36:02;;;;;;;11.07;3.57;;;6.00;24.70;;;;;;5021317;28;20452;-83
2023/03/04 03:38:29;;;;;;;6.67;2.93;;;5.90;26.60;;;;;;5019755;28;20438;-82
2023/03/04 03:40:56;;;;;;;13.10;2.67;;;5.90;25.40;;;;;;5020551;28;20843;-84
2023/03/04 03:43:22;;;;;;;19.87;4.63;;;5.90;15.30;;;;;;5004267;28;20466;-83
2023/03/04 03:45:50;;;;;;;6.73;2.57;;;5.90;20.40;;;;;;5000511;28;20496;-84
2023/03/04 03:48:17;;;;;;;6.87;2.60;;;5.90;21.40;;;;;;5014609;28;20471;-84
2023/03/04 03:50:45;;;;;;;10.50;3.10;;;5.90;14.60;;;;;;5020166;28;20472;-81
2023/03/04 03:53:13;;;;;;;8.70;3.20;;;5.70;13.40;;;;;;5006004;28;20508;-84
2023/03/04 03:55:40;;;;;;;8.50;2.87;;;5.80;18.50;;;;;;5000085;28;20453;-83
2023/03/04 03:58:06;;;;;;;12.97;2.80;;;5.80;20.70;;;;;;5009243;28;20455;-83
2023/03/04 04:00:33;;;;;;;7.77;2.70;;;5.90;8.20;;;;;;5016668;28;20494;-82
2023/03/04 04:03:01;;;;;;;8.17;2.87;;;5.80;15.00;;;;;;5007955;28;20515;-84
2023/03/04 04:05:28;;;;;;;9.43;3.40;;;5.80;18.60;;;;;;4996647;28;21093;-83
2023/03/04 04:07:55;;;;;;;7.40;2.90;;;5.80;23.00;;;;;;5005272;28;20456;-84
2023/03/04 04:10:24;;;;;;;9.63;2.57;;;5.80;39.70;;;;;;5016125;28;20479;-83
2023/03/04 04:12:50;;;;;;;11.27;3.87;;;5.90;29.50;;;;;;5014296;28;20551;-83
2023/03/04 04:15:17;;;;;;;14.30;2.70;;;5.90;22.30;;;;;;5016111;28;20466;-83
2023/03/04 04:17:44;;;;;;;12.50;2.37;;;5.80;20.60;;;;;;4999117;28;20438;-83
2023/03/04 04:20:12;;;;;;;9.30;2.60;;;5.90;24.50;;;;;;4995959;28;20842;-83
2023/03/04 04:22:38;;;;;;;11.70;4.00;;;5.90;20.40;;;;;;4999989;28;20475;-84
2023/03/04 04:25:07;;;;;;;11.60;2.70;;;5.90;17.60;;;;;;4996323;28;20464;-84
2023/03/04 04:27:35;;;;;;;15.73;2.60;;;5.90;21.80;;;;;;5010616;28;20555;-83
2023/03/04 04:30:03;;;;;;;8.13;2.57;;;5.80;15.20;;;;;;5015065;28;20482;-84
2023/03/04 04:32:30;;;;;;;9.40;2.80;;;5.90;27.80;;;;;;5015745;28;20535;-84
2023/03/04 04:34:56;;;;;;;12.53;3.33;;;5.80;32.50;;;;;;5012793;28;20601;-81
2023/03/04 04:37:23;;;;;;;13.57;2.90;;;5.80;32.80;;;;;;4994886;28;20452;-84
2023/03/04 04:39:51;;;;;;;9.23;2.20;;;5.80;36.50;;;;;;4995754;28;20473;-83
2023/03/04 04:42:17;;;;;;;10.43;2.60;;;5.80;42.00;;;;;;5010050;28;20454;-84
2023/03/04 04:44:46;;;;;;;13.20;3.30;;;5.80;49.60;;;;;;4997639;28;20868;-83
2023/03/04 04:47:12;;;;;;;11.10;2.30;;;5.80;53.30;;;;;;4998713;28;20458;-83
2023/03/04 04:49:40;;;;;;;10.30;2.30;;;5.80;76.00;;;;;;4996006;28;20478;-82
2023/03/04 04:52:06;;;;;;;10.17;2.10;;;5.80;91.00;;;;;;5003154;28;20460;-84
2023/03/04 04:54:33;;;;;;;13.00;2.37;;;5.90;90.10;;;;;;5004825;28;20455;-82
2023/03/04 04:57:00;;;;;;;4.67;2.00;;;5.90;97.70;;;;;;5012702;28;20456;-83
2023/03/04 04:59:27;;;;;;;7.53;1.93;;;5.90;99.90;;;;;;5016248;28;20496;-84
2023/03/04 05:01:55;;;;;;;8.30;2.00;;;5.90;99.90;;;;;;5001448;28;20456;-83
2023/03/04 05:04:22;;;;;;;5.23;1.83;;;5.90;99.90;;;;;;4995105;28;20482;-82
2023/03/04 05:06:48;;;;;;;11.47;2.80;;;5.90;99.90;;;;;;5016302;28;20541;-84
2023/03/04 05:09:15;;;;;;;7.83;2.13;;;6.00;99.90;;;;;;5019966;28;20506;-85
2023/03/04 05:11:42;;;;;;;6.23;2.80;;;5.90;99.90;;;;;;5005003;28;20544;-84
2023/03/04 05:14:09;;;;;;;5.93;1.90;;;6.00;99.90;;;;;;4994959;28;20430;-83
2023/03/04 05:16:36;;;;;;;7.17;1.70;;;6.00;99.90;;;;;;5010716;28;20428;-83
2023/03/04 05:19:04;;;;;;;9.47;2.17;;;5.90;99.90;;;;;;5014133;28;21002;-83
2023/03/04 05:21:31;;;;;;;10.43;2.40;;;5.90;99.90;;;;;;4999098;28;20464;-83
2023/03/04 05:23:58;;;;;;;11.37;2.30;;;6.00;99.90;;;;;;4994559;28;20450;-82
2023/03/04 05:26:24;;;;;;;5.17;1.80;;;6.00;99.90;;;;;;5007567;28;20468;-83
2023/03/04 05:28:51;;;;;;;8.27;2.40;;;6.00;99.90;;;;;;5013825;28;20816;-82
2023/03/04 05:31:18;;;;;;;6.13;2.33;;;6.00;99.90;;;;;;5001754;28;20474;-83
2023/03/04 05:33:45;;;;;;;14.00;2.30;;;6.00;99.90;;;;;;4994434;28;20456;-82
2023/03/04 05:36:13;;;;;;;8.13;2.57;;;6.00;99.90;;;;;;5005098;28;20461;-83
2023/03/04 05:38:40;;;;;;;8.23;2.60;;;6.00;99.90;;;;;;5014107;28;20464;-83
2023/03/04 05:41:07;;;;;;;7.87;2.10;;;6.00;99.90;;;;;;5004491;28;20481;-83
2023/03/04 05:43:35;;;;;;;6.27;2.17;;;6.00;99.90;;;;;;4994379;28;20465;-84
2023/03/04 05:46:03;;;;;;;10.17;2.00;;;6.00;99.90;;;;;;5006825;28;20496;-84
2023/03/04 05:48:30;;;;;;;6.80;2.03;;;6.00;99.90;;;;;;5013465;28;20460;-82
2023/03/04 05:50:58;;;;;;;9.73;3.00;;;6.00;99.90;;;;;;5001738;28;20495;-82
2023/03/04 05:53:27;;;;;;;7.80;2.23;;;6.00;99.90;;;;;;4993890;28;20464;-82
2023/03/04 05:55:54;;;;;;;8.40;2.40;;;6.00;99.90;;;;;;5004594;28;20546;-83
2023/03/04 05:58:22;;;;;;;7.80;2.33;;;6.00;99.90;;;;;;5013682;28;20462;-81
2023/03/04 06:00:49;;;;;;;9.40;2.30;;;5.90;99.90;;;;;;5013111;28;20568;-83
2023/03/04 06:03:16;;;;;;;8.20;2.23;;;5.80;99.90;;;;;;5014363;28;20514;-83
2023/03/04 06:05:43;;;;;;;7.07;1.90;;;5.80;99.90;;;;;;5005635;28;20936;-83
2023/03/04 06:08:11;;;;;;;6.13;2.03;;;5.80;99.90;;;;;;4993855;28;20450;-82
2023/03/04 06:10:40;;;;;;;6.17;1.77;;;5.90;99.90;;;;;;4999985;28;20852;-83
2023/03/04 06:13:07;;;;;;;7.17;1.97;;;5.90;99.90;;;;;;5013861;28;20529;-84
2023/03/04 06:15:34;;;;;;;8.83;2.23;;;5.90;99.90;;;;;;5003582;28;20452;-83
2023/03/04 06:18:01;;;;;;;7.00;2.10;;;5.80;99.90;;;;;;4994175;28;20965;-84
2023/03/04 06:20:28;;;;;;;4.50;2.00;;;5.90;99.90;;;;;;4998313;28;20485;-84
2023/03/04 06:22:55;;;;;;;13.07;1.50;;;5.90;99.90;;;;;;5000988;28;20453;-83
2023/03/04 06:25:22;;;;;;;4.80;2.13;;;5.90;99.90;;;;;;4993827;28;20489;-83
2023/03/04 06:27:50;;;;;;;6.40;2.10;;;6.00;99.90;;;;;;4994009;28;20866;-83
2023/03/04 06:30:17;;;;;;;6.57;1.73;;;6.00;99.90;;;;;;4994338;28;20469;-84
2023/03/04 06:32:44;;;;;;;7.57;2.57;;;6.00;99.90;;;;;;4993818;28;20855;-82
2023/03/04 06:35:12;;;;;;;6.30;1.90;;;6.10;99.90;;;;;;4997520;28;20456;-84
2023/03/04 06:37:39;;;;;;;4.77;3.17;;;6.10;99.90;;;;;;5013225;28;20877;-83
2023/03/04 06:40:07;;;;;;;11.33;2.60;;;6.10;99.90;;;;;;5010782;28;20483;-83
2023/03/04 06:42:34;;;;;;;7.33;2.53;;;6.10;99.90;;;;;;4993555;28;20461;-82
2023/03/04 06:45:03;;;;;;;6.90;2.20;;;6.10;99.90;;;;;;5004649;28;20498;-82
2023/03/04 06:47:30;;;;;;;7.37;2.40;;;6.10;99.90;;;;;;5013605;28;20457;-82
2023/03/04 06:49:57;;;;;;;10.00;2.07;;;6.10;99.90;;;;;;5016630;28;20486;-88
2023/03/04 06:52:24;;;;;;;5.80;2.47;;;6.10;99.90;;;;;;5016659;28;20539;-86
2023/03/04 06:54:51;;;;;;;7.60;2.77;;;6.10;99.90;;;;;;5014368;28;20452;-88
2023/03/04 06:57:18;;;;;;;9.37;1.83;;;6.10;99.90;;;;;;5014571;28;20452;-86
2023/03/04 06:59:45;;;;;;;3.60;1.73;;;6.20;99.90;;;;;;5002438;28;20491;-84
2023/03/04 07:02:13;;;;;;;4.93;1.83;;;6.20;99.90;;;;;;4998362;28;20457;-86
2023/03/04 07:04:40;;;;;;;7.57;1.77;;;6.30;99.90;;;;;;4997809;28;20464;-85
2023/03/04 07:07:07;;;;;;;7.73;1.60;;;6.20;99.90;;;;;;5001345;28;20452;-82
2023/03/04 07:09:34;;;;;;;8.93;2.10;;;6.20;99.90;;;;;;5011108;28;20542;-83
2023/03/04 07:12:00;;;;;;;8.13;1.97;;;6.20;99.90;;;;;;5021426;28;20437;-80
2023/03/04 07:14:27;;;;;;;5.60;1.90;;;6.10;99.90;;;;;;5012529;28;20431;-83
2023/03/04 07:16:54;;;;;;;4.73;1.43;;;6.20;99.90;;;;;;4998308;28;20538;-86
2023/03/04 07:19:23;;;;;;;5.47;1.70;;;6.10;99.90;;;;;;5014943;28;20451;-82
2023/03/04 07:21:49;;;;;;;6.90;1.77;;;6.20;99.90;;;;;;4997901;28;20458;-85
2023/03/04 07:24:16;;;;;;;6.53;1.67;;;6.20;99.90;;;;;;5014489;28;20460;-86
2023/03/04 07:26:43;;;;;;;8.77;2.43;;;6.20;99.90;;;;;;5016836;28;20554;-85
2023/03/04 07:29:10;;;;;;;5.07;2.10;;;6.20;99.90;;;;;;5000109;28;20501;-85
2023/03/04 07:31:37;;;;;;;6.63;2.17;;;6.10;99.90;;;;;;5007449;28;20461;-84
2023/03/04 07:34:07;;;;;;;6.13;2.60;;;6.10;99.90;;;;;;5016686;28;20462;-83
2023/03/04 07:36:36;;;;;;;4.63;1.67;;;6.10;99.90;;;;;;5006770;28;20461;-85
2023/03/04 07:39:04;;;;;;;7.90;1.50;;;6.10;99.90;;;;;;4996552;28;20464;-85
2023/03/04 07:41:35;;;;;;;13.53;2.97;;;6.10;99.90;;;;;;5005516;28;20512;-85
2023/03/04 07:44:02;;;;;;;7.60;1.53;;;6.00;1.00;;;;;;4998365;28;20457;-83
2023/03/04 07:46:29;;;;;;;3.90;1.50;;;6.20;1.00;;;;;;4997289;28;20496;-82
2023/03/04 07:48:56;;;;;;;5.03;1.70;;;6.20;1.00;;;;;;5007687;28;20804;-80
2023/03/04 07:51:25;;;;;;;7.30;1.80;;;6.30;99.90;;;;;;5017140;28;20477;-83
2023/03/04 07:53:56;;;;;;;4.50;1.63;;;6.40;99.90;;;;;;5017660;28;20456;-83
2023/03/04 07:56:24;;;;;;;7.20;2.50;;;6.40;1.00;;;;;;5018492;28;20471;-82
2023/03/04 07:58:52;;;;;;;4.83;1.70;;;6.30;99.90;;;;;;5018378;28;20543;-83
2023/03/04 08:01:21;;;;;;;5.07;1.67;;;6.60;99.90;;;;;;5017423;28;20482;-82
2023/03/04 08:03:48;;;;;;;4.73;1.93;;;6.70;99.90;;;;;;5017152;28;20456;-83
2023/03/04 08:06:18;;;;;;;4.10;1.87;;;7.00;99.90;;;;;;5016455;28;20495;-82
2023/03/04 08:08:45;;;;;;;4.30;1.43;;;7.20;99.90;;;;;;5016403;28;20488;-82
2023/03/04 08:11:15;;;;;;;4.93;1.57;;;7.40;99.90;;;;;;5016030;28;20875;-82
2023/03/04 08:13:42;;;;;;;8.63;1.60;;;7.70;99.90;;;;;;5017088;28;20457;-82
2023/03/04 08:16:12;;;;;;;8.70;2.07;;;7.70;35.00;;;;;;5016509;28;20884;-80
2023/03/04 08:18:39;;;;;;;5.80;1.60;;;7.70;17.60;;;;;;5015361;28;20991;-84
2023/03/04 08:21:09;;;;;;;8.90;2.10;;;8.20;9.10;;;;;;5015991;28;20481;-83
2023/03/04 08:23:36;;;;;;;4.23;2.27;;;8.50;1.00;;;;;;5016907;28;20450;-82
2023/03/04 08:26:06;;;;;;;8.97;1.93;;;8.70;1.00;;;;;;4997509;28;20487;-83
2023/03/04 08:28:34;;;;;;;4.77;2.17;;;8.80;1.00;;;;;;4996744;28;20464;-81
2023/03/04 08:31:01;;;;;;;8.13;2.67;;;9.00;1.00;;;;;;5012722;28;20484;-83
2023/03/04 08:33:28;;;;;;;5.40;2.07;;;8.90;1.00;;;;;;5014189;28;20586;-80
2023/03/04 08:35:55;;;;;;;9.67;2.30;;;8.60;1.00;;;;;;5004018;28;20516;-82
2023/03/04 08:38:22;;;;;;;9.73;2.40;;;8.70;1.00;;;;;;5005383;28;20533;-80
2023/03/04 08:40:53;;;;;;;6.60;2.63;;;9.00;1.00;;;;;;5002413;28;20557;-84
2023/03/04 08:43:19;;;;;;;6.37;2.30;;;9.10;1.00;;;;;;5016579;28;20987;-83
2023/03/04 08:45:48;;;;;;;9.50;2.80;;;9.10;1.00;;;;;;5005991;28;20493;-83
2023/03/04 08:48:15;;;;;;;8.00;4.50;;;8.80;1.00;;;;;;5008445;28;20490;-84
2023/03/04 08:50:43;;;;;;;6.80;2.83;;;9.00;1.00;;;;;;5012520;28;20495;-84
2023/03/04 08:53:10;;;;;;;7.60;3.43;;;9.10;1.00;;;;;;5005029;28;20487;-83
2023/03/04 08:55:38;;;;;;;11.73;2.93;;;9.20;1.00;;;;;;5024188;28;20543;-83
2023/03/04 08:58:05;;;;;;;7.97;3.07;;;9.40;1.00;;;;;;5018572;28;20784;-83
2023/03/04 09:00:32;;;;;;;8.13;3.70;;;9.50;1.00;;;;;;4995788;28;20493;-83
2023/03/04 09:03:00;;;;;;;10.63;3.70;;;9.40;1.00;;;;;;4995780;28;20897;-81
2023/03/04 09:05:27;;;;;;;18.20;5.60;;;9.40;1.00;;;;;;4996440;28;20544;-83
2023/03/04 09:07:54;;;;;;;15.03;5.93;;;9.30;1.00;;;;;;5007181;28;20555;-83
2023/03/04 09:10:22;;;;;;;11.43;5.80;;;9.20;1.00;;;;;;5012064;28;21046;-83
2023/03/04 09:12:49;;;;;;;7.30;5.00;;;9.00;1.00;;;;;;5014861;28;20454;-84
2023/03/04 09:15:16;;;;;;;9.33;4.37;;;8.80;1.00;;;;;;5007343;28;20498;-84
2023/03/04 09:17:43;;;;;;;5.17;3.53;;;8.40;1.00;;;;;;5000974;28;20541;-85
2023/03/04 09:20:13;;;;;;;5.47;2.50;;;8.40;38.50;;;;;;5002047;28;20842;-84
2023/03/04 09:22:41;;;;;;;6.40;3.17;;;8.40;32.50;;;;;;5020080;28;20463;-86
2023/03/04 09:25:10;;;;;;;12.93;3.10;;;8.40;31.50;;;;;;5024204;28;20450;-84
2023/03/04 09:27:37;;;;;;;6.03;2.60;;;8.50;95.70;;;;;;5006705;28;20514;-83
2023/03/04 09:30:05;;;;;;;6.57;2.80;;;8.70;99.90;;;;;;5002011;28;20498;-84
2023/03/04 09:32:31;;;;;;;6.53;2.77;;;8.60;99.90;;;;;;5003736;28;20551;-82
2023/03/04 09:34:58;;;;;;;6.23;2.17;;;8.70;99.90;;;;;;5002030;28;20494;-84
2023/03/04 09:37:26;;;;;;;6.90;2.50;;;8.60;99.70;;;;;;5003713;28;20546;-83
2023/03/04 09:39:53;;;;;;;5.80;2.80;;;8.50;99.90;;;;;;4994151;28;20562;-84
2023/03/04 09:42:25;;;;;;;10.13;4.03;;;8.50;99.90;;;;;;4995723;28;20524;-83
2023/03/04 09:44:53;;;;;;;8.77;4.00;;;8.60;99.90;;;;;;4995513;28;20812;-83
2023/03/04 09:47:22;;;;;;;8.43;4.33;;;8.60;99.90;;;;;;4996119;28;20587;-83
2023/03/04 09:49:55;;;;;;;8.93;5.20;;;8.30;99.90;;;;;;4995299;28;20472;-83
2023/03/04 09:52:34;;;;;;;9.47;5.53;;;8.00;99.90;;;;;;4996355;28;20455;-82
2023/03/04 09:55:08;;;;;;;10.20;7.03;;;8.10;99.90;;;;;;4996037;28;20545;-83
2023/03/04 09:57:46;;;;;;;7.07;5.30;;;8.20;99.90;;;;;;4997355;28;20450;-84
2023/03/04 10:00:18;;;;;;;10.83;4.90;;;7.90;1.00;;;;;;4995967;28;20482;-83
2023/03/04 10:02:58;;;;;;;7.03;6.27;;;7.80;99.90;;;;;;4995418;28;20459;-84
2023/03/04 10:05:27;;;;;;;9.23;6.03;;;7.90;99.90;;;;;;4998782;28;20486;-84
2023/03/04 10:07:59;;;;;;;13.00;8.00;;;8.00;99.90;;;;;;4996063;28;20446;-83
2023/03/04 10:10:30;;;;;;;13.13;6.17;;;7.90;99.90;;;;;;4994210;28;20484;-84
2023/03/04 10:12:59;;;;;;;9.70;6.00;;;8.00;99.90;;;;;;4999573;28;21050;-81
2023/03/04 10:15:31;;;;;;;9.27;5.70;;;8.00;99.90;;;;;;5011727;28;20469;-83
2023/03/04 10:18:06;;;;;;;8.23;5.80;;;8.00;1.00;;;;;;4997659;28;20450;-83
2023/03/04 10:20:46;;;;;;;11.93;6.20;;;7.90;1.00;;;;;;4994171;28;20473;-82
2023/03/04 10:23:19;;;;;;;8.33;7.07;;;8.10;99.90;;;;;;4996969;28;20442;-85
2023/03/04 10:25:50;;;;;;;9.67;6.47;;;8.50;1.00;;;;;;4996679;28;20482;-82
2023/03/04 10:28:21;;;;;;;11.57;6.07;;;8.80;1.00;;;;;;5001338;28;20469;-85
2023/03/04 10:30:53;;;;;;;7.87;6.23;;;9.00;1.00;;;;;;5007097;28;20480;-84
2023/03/04 10:33:22;;;;;;;9.20;5.77;;;8.90;99.90;;;;;;5005531;28;20546;-85
2023/03/04 10:35:52;;;;;;;14.30;5.93;;;9.00;99.90;;;;;;5007563;28;20455;-84
2023/03/04 10:38:22;;;;;;;8.20;5.30;;;9.00;99.90;;;;;;5003743;28;21010;-84
2023/03/04 10:40:49;;;;;;;8.80;5.57;;;9.10;99.90;;;;;;4997838;28;20566;-84
2023/03/04 10:43:17;;;;;;;8.63;5.40;;;9.00;99.90;;;;;;4997801;28;20455;-83
2023/03/04 10:45:45;;;;;;;8.70;5.50;;;8.90;99.90;;;;;;4998466;28;20455;-82
2023/03/04 10:48:20;;;;;;;8.90;5.30;;;8.80;99.90;;;;;;5000350;28;20459;-83
2023/03/04 10:50:47;;;;;;;8.87;4.90;;;8.60;99.90;;;;;;4998963;28;20492;-83
2023/03/04 10:53:33;;;;;;;6.53;4.63;;;8.50;99.90;;;;;;4998392;28;20467;-83
2023/03/04 10:56:01;;;;;;;8.53;5.40;;;8.30;1.00;;;;;;4997883;28;20509;-84
2023/03/04 10:58:28;;;;;;;9.30;5.17;;;8.20;1.00;;;;;;4999218;28;20476;-83
2023/03/04 11:01:04;;;;;;;8.23;5.00;;;7.90;1.00;;;;;;4997215;28;20502;-84
2023/03/04 11:03:34;;;;;;;8.70;5.50;;;7.80;99.90;;;;;;4997131;28;20958;-83
2023/03/04 11:06:11;;;;;;;6.27;5.10;;;7.70;99.90;;;;;;4997164;28;20822;-84
2023/03/04 11:08:41;;;;;;;8.47;5.03;;;7.60;1.00;;;;;;4997421;28;20833;-84
2023/03/04 11:11:28;;;;;;;10.47;8.13;;;7.60;1.00;;;;;;4998218;28;20553;-83
2023/03/04 11:13:59;;;;;;;10.30;6.00;;;7.60;1.00;;;;;;4998161;28;20458;-84
2023/03/04 11:16:28;;;;;;;7.80;5.00;;;7.60;1.00;;;;;;4997786;28;20523;-83
2023/03/04 11:18:59;;;;;;;4.23;3.43;;;7.70;99.90;;;;;;4997458;28;20466;-84
2023/03/04 11:21:29;;;;;;;7.40;4.17;;;7.80;1.00;;;;;;4996596;28;20475;-84
2023/03/04 11:24:00;;;;;;;9.73;4.10;;;8.10;99.90;;;;;;4996500;28;20951;-82
2023/03/04 11:26:31;;;;;;;8.10;4.07;;;8.30;99.90;;;;;;4996034;28;20577;-84
2023/03/04 11:29:05;;;;;;;5.00;3.10;;;8.50;1.00;;;;;;4996129;28;20959;-83
2023/03/04 11:31:36;;;;;;;5.30;3.03;;;8.80;1.00;;;;;;4997246;28;20573;-83
2023/03/04 11:34:09;;;;;;;5.90;2.83;;;8.80;99.90;;;;;;4997835;28;20931;-84
2023/03/04 11:36:44;;;;;;;3.90;3.20;;;8.70;1.00;;;;;;4999772;28;20459;-84
2023/03/04 11:39:20;;;;;;;5.53;3.63;;;8.70;1.00;;;;;;4998055;28;20440;-83
2023/03/04 11:41:55;;;;;;;5.00;3.53;;;8.70;1.00;;;;;;4998036;28;20897;-83
2023/03/04 11:44:21;;;;;;;5.90;3.70;;;8.60;99.90;;;;;;4998792;28;20460;-84
2023/03/04 11:47:07;;;;;;;5.40;3.77;;;8.80;99.90;;;;;;4997996;28;20586;-84
2023/03/04 11:50:00;;;;;;;5.13;2.60;;;9.20;1.00;;;;;;4997206;28;20478;-83
2023/03/04 11:52:38;;;;;;;2.83;2.30;;;9.90;99.90;;;;;;4999591;28;20949;-84
2023/03/04 11:55:20;;;;;;;3.07;2.00;;;10.50;99.90;;;;;;5010827;28;20457;-83
2023/03/04 11:57:56;;;;;;;6.40;3.37;;;10.70;99.90;;;;;;5016013;28;20456;-82
2023/03/04 12:00:35;;;;;;;4.00;2.63;;;10.70;99.90;;;;;;5026597;23;20511;-86
2023/03/04 12:03:53;;;;;;;3.40;2.20;;;10.60;99.90;;;;;;5022691;28;20460;-83
2023/03/04 12:06:30;;;;;;;2.70;1.90;;;10.50;99.90;;;;;;4921992;29;20464;-82
2023/03/04 12:09:09;;;;;;;5.30;1.87;;;10.20;99.90;;;;;;4920444;29;20620;-79
2023/03/04 12:11:51;;;;;;;3.43;2.27;;;10.00;99.90;;;;;;4977487;28;20472;-81
2023/03/04 12:14:30;;;;;;;5.10;2.47;;;9.50;99.90;;;;;;5029453;28;20533;-81
2023/03/04 12:17:12;;;;;;;4.23;3.63;;;9.60;1.00;;;;;;5022831;28;20542;-79
2023/03/04 12:20:05;;;;;;;6.07;2.70;;;9.50;1.00;;;;;;5025145;28;20460;-81
2023/03/04 12:22:41;;;;;;;4.40;3.40;;;9.50;1.00;;;;;;5016267;28;20829;-81
2023/03/04 12:25:32;;;;;;;4.27;3.67;;;9.50;1.00;;;;;;5024848;28;20454;-81
2023/03/04 12:28:12;;;;;;;7.03;4.73;;;9.40;1.00;;;;;;5016498;28;20515;-82
2023/03/04 12:30:49;;;;;;;5.97;3.70;;;9.10;1.00;;;;;;4997817;28;20480;-81
2023/03/04 12:33:27;;;;;;;7.20;4.73;;;8.90;15.20;;;;;;4999766;28;20444;-82
2023/03/04 12:36:06;;;;;;;6.27;3.80;;;8.80;99.90;;;;;;5017716;28;20549;-81
2023/03/04 12:38:51;;;;;;;6.90;3.53;;;8.80;99.90;;;;;;5017694;28;20485;-81
2023/03/04 12:41:42;;;;;;;5.20;2.93;;;8.70;1.00;;;;;;5017343;28;21098;-81
2023/03/04 12:44:20;;;;;;;10.47;3.73;;;8.70;99.90;;;;;;5016089;28;20509;-81
2023/03/04 12:47:05;;;;;;;5.63;4.13;;;8.40;99.90;;;;;;5016107;28;20989;-82
2023/03/04 12:49:55;;;;;;;5.63;3.80;;;8.30;99.90;;;;;;5017311;28;20462;-82
2023/03/04 12:52:34;;;;;;;9.10;5.13;;;8.30;1.00;;;;;;5019574;28;20450;-82
2023/03/04 12:55:03;;;;;;;6.90;4.10;;;8.30;99.90;;;;;;5014434;28;20533;-81
2023/03/04 12:57:32;;;;;;;7.77;4.47;;;8.30;1.00;;;;;;5014181;28;20465;-82
2023/03/04 13:00:20;;;;;;;6.50;3.57;;;8.40;99.90;;;;;;5016771;28;20886;-82
2023/03/04 13:02:58;;;;;;;4.80;3.20;;;8.50;99.90;;;;;;5014755;28;20830;-83
2023/03/04 13:05:57;;;;;;;8.90;3.57;;;8.70;1.00;;;;;;5014405;28;20492;-83
2023/03/04 13:08:38;;;;;;;6.47;3.00;;;8.90;1.00;;;;;;5013883;28;20515;-82